sensor_id;sensor_type;location;lat;lon;timestamp;pressure;altitude;pressure_sealevel;temperature;humidity
75585;BME280;64162;53.508;10.476;2024-01-27T00:01:56;102302.78;;;8.84;64.29
75585;BME280;64162;53.508;10.476;2024-01-27T00:04:23;102316.22;;;8.77;64.42
75585;BME280;64162;53.508;10.476;2024-01-27T00:06:49;102304.34;;;9.11;63.96
75585;BME280;64162;53.508;10.476;2024-01-27T00:09:16;102305.94;;;8.64;64.40
75585;BME280;64162;53.508;10.476;2024-01-27T00:11:42;102306.06;;;8.86;63.97
75585;BME280;64162;53.508;10.476;2024-01-27T00:14:09;102320.00;;;9.33;63.76
75585;BME280;64162;53.508;10.476;2024-01-27T00:16:35;102310.00;;;9.16;63.53
75585;BME280;64162;53.508;10.476;2024-01-27T00:19:02;102320.97;;;8.70;64.88
75585;BME280;64162;53.508;10.476;2024-01-27T00:21:29;102326.56;;;8.77;63.90
75585;BME280;64162;53.508;10.476;2024-01-27T00:23:55;102316.84;;;8.68;64.01
75585;BME280;64162;53.508;10.476;2024-01-27T00:26:27;102322.16;;;9.02;63.46
75585;BME280;64162;53.508;10.476;2024-01-27T00:28:54;102323.00;;;8.90;63.66
75585;BME280;64162;53.508;10.476;2024-01-27T00:31:20;102310.41;;;8.98;63.74
75585;BME280;64162;53.508;10.476;2024-01-27T00:33:47;102325.97;;;9.57;61.96
75585;BME280;64162;53.508;10.476;2024-01-27T00:36:14;102317.56;;;8.82;64.14
75585;BME280;64162;53.508;10.476;2024-01-27T00:38:40;102328.41;;;8.87;63.83
75585;BME280;64162;53.508;10.476;2024-01-27T00:41:07;102336.00;;;9.01;63.65
75585;BME280;64162;53.508;10.476;2024-01-27T00:43:33;102332.97;;;9.44;62.10
75585;BME280;64162;53.508;10.476;2024-01-27T00:46:00;102344.59;;;9.26;62.48
75585;BME280;64162;53.508;10.476;2024-01-27T00:48:26;102346.25;;;9.27;62.08
75585;BME280;64162;53.508;10.476;2024-01-27T00:50:53;102344.53;;;8.78;63.91
75585;BME280;64162;53.508;10.476;2024-01-27T00:53:19;102347.63;;;8.83;63.94
75585;BME280;64162;53.508;10.476;2024-01-27T00:55:46;102360.09;;;9.02;63.96
75585;BME280;64162;53.508;10.476;2024-01-27T00:58:12;102359.75;;;9.07;63.34
75585;BME280;64162;53.508;10.476;2024-01-27T01:00:39;102364.88;;;8.83;63.62
75585;BME280;64162;53.508;10.476;2024-01-27T01:03:05;102376.94;;;9.44;62.50
75585;BME280;64162;53.508;10.476;2024-01-27T01:05:32;102374.84;;;9.13;62.91
75585;BME280;64162;53.508;10.476;2024-01-27T01:07:58;102364.59;;;9.24;62.98
75585;BME280;64162;53.508;10.476;2024-01-27T01:10:25;102373.59;;;9.18;63.84
75585;BME280;64162;53.508;10.476;2024-01-27T01:12:52;102377.66;;;9.10;63.49
75585;BME280;64162;53.508;10.476;2024-01-27T01:15:19;102382.72;;;8.98;63.39
75585;BME280;64162;53.508;10.476;2024-01-27T01:17:45;102384.28;;;9.37;62.55
75585;BME280;64162;53.508;10.476;2024-01-27T01:20:12;102382.84;;;9.33;62.85
75585;BME280;64162;53.508;10.476;2024-01-27T01:22:38;102380.06;;;8.87;64.16
75585;BME280;64162;53.508;10.476;2024-01-27T01:25:05;102358.97;;;8.93;63.68
75585;BME280;64162;53.508;10.476;2024-01-27T01:27:32;102371.97;;;8.92;63.64
75585;BME280;64162;53.508;10.476;2024-01-27T01:29:59;102389.97;;;8.93;63.19
75585;BME280;64162;53.508;10.476;2024-01-27T01:32:26;102381.34;;;9.05;62.66
75585;BME280;64162;53.508;10.476;2024-01-27T01:34:52;102378.34;;;9.12;62.10
75585;BME280;64162;53.508;10.476;2024-01-27T01:37:19;102382.88;;;9.21;62.74
75585;BME280;64162;53.508;10.476;2024-01-27T01:39:45;102381.53;;;9.52;61.62
75585;BME280;64162;53.508;10.476;2024-01-27T01:42:11;102384.19;;;8.90;62.83
75585;BME280;64162;53.508;10.476;2024-01-27T01:44:38;102398.22;;;8.98;62.79
75585;BME280;64162;53.508;10.476;2024-01-27T01:47:05;102398.03;;;8.76;62.62
75585;BME280;64162;53.508;10.476;2024-01-27T01:49:32;102384.88;;;9.41;62.48
75585;BME280;64162;53.508;10.476;2024-01-27T01:51:59;102406.69;;;9.13;62.56
75585;BME280;64162;53.508;10.476;2024-01-27T01:54:25;102409.16;;;9.15;62.93
75585;BME280;64162;53.508;10.476;2024-01-27T01:56:58;102420.56;;;8.87;63.65
75585;BME280;64162;53.508;10.476;2024-01-27T01:59:25;102420.53;;;9.25;62.73
75585;BME280;64162;53.508;10.476;2024-01-27T02:01:52;102414.34;;;9.15;63.28
75585;BME280;64162;53.508;10.476;2024-01-27T02:04:18;102415.78;;;9.19;63.16
75585;BME280;64162;53.508;10.476;2024-01-27T02:06:45;102420.50;;;9.61;61.94
75585;BME280;64162;53.508;10.476;2024-01-27T02:09:11;102420.13;;;9.05;63.85
75585;BME280;64162;53.508;10.476;2024-01-27T02:11:38;102429.66;;;9.05;63.79
75585;BME280;64162;53.508;10.476;2024-01-27T02:14:04;102424.53;;;9.29;63.53
75585;BME280;64162;53.508;10.476;2024-01-27T02:16:32;102433.78;;;9.08;64.41
75585;BME280;64162;53.508;10.476;2024-01-27T02:18:58;102439.16;;;8.79;65.02
75585;BME280;64162;53.508;10.476;2024-01-27T02:21:25;102426.13;;;9.19;63.71
75585;BME280;64162;53.508;10.476;2024-01-27T02:23:52;102420.00;;;9.20;63.42
75585;BME280;64162;53.508;10.476;2024-01-27T02:26:18;102427.47;;;8.99;64.51
75585;BME280;64162;53.508;10.476;2024-01-27T02:28:45;102433.97;;;8.92;64.91
75585;BME280;64162;53.508;10.476;2024-01-27T02:31:11;102438.44;;;9.15;63.95
75585;BME280;64162;53.508;10.476;2024-01-27T02:33:38;102426.13;;;9.06;64.02
75585;BME280;64162;53.508;10.476;2024-01-27T02:36:05;102427.69;;;8.96;64.41
75585;BME280;64162;53.508;10.476;2024-01-27T02:38:31;102433.53;;;9.11;64.29
75585;BME280;64162;53.508;10.476;2024-01-27T02:40:58;102430.81;;;9.50;63.19
75585;BME280;64162;53.508;10.476;2024-01-27T02:43:25;102445.06;;;8.94;64.82
75585;BME280;64162;53.508;10.476;2024-01-27T02:45:51;102430.25;;;9.09;64.03
75585;BME280;64162;53.508;10.476;2024-01-27T02:48:18;102416.00;;;8.90;64.54
75585;BME280;64162;53.508;10.476;2024-01-27T02:50:44;102420.75;;;8.96;64.91
75585;BME280;64162;53.508;10.476;2024-01-27T02:53:11;102416.22;;;9.00;64.59
75585;BME280;64162;53.508;10.476;2024-01-27T02:55:37;102427.47;;;8.86;64.65
75585;BME280;64162;53.508;10.476;2024-01-27T02:58:04;102429.16;;;8.75;65.43
75585;BME280;64162;53.508;10.476;2024-01-27T03:00:31;102438.00;;;8.96;65.56
75585;BME280;64162;53.508;10.476;2024-01-27T03:02:57;102456.28;;;8.80;65.28
75585;BME280;64162;53.508;10.476;2024-01-27T03:05:24;102449.06;;;8.73;65.99
75585;BME280;64162;53.508;10.476;2024-01-27T03:07:51;102453.41;;;8.59;65.89
75585;BME280;64162;53.508;10.476;2024-01-27T03:10:17;102445.34;;;8.51;65.91
75585;BME280;64162;53.508;10.476;2024-01-27T03:12:44;102459.22;;;8.88;65.72
75585;BME280;64162;53.508;10.476;2024-01-27T03:15:11;102461.28;;;8.83;65.26
75585;BME280;64162;53.508;10.476;2024-01-27T03:17:37;102466.22;;;8.74;65.37
75585;BME280;64162;53.508;10.476;2024-01-27T03:20:04;102447.81;;;9.29;63.81
75585;BME280;64162;53.508;10.476;2024-01-27T03:22:31;102459.72;;;8.93;65.33
75585;BME280;64162;53.508;10.476;2024-01-27T03:24:57;102463.63;;;9.12;65.04
75585;BME280;64162;53.508;10.476;2024-01-27T03:27:24;102466.94;;;8.63;65.35
75585;BME280;64162;53.508;10.476;2024-01-27T03:29:50;102462.50;;;9.03;64.59
75585;BME280;64162;53.508;10.476;2024-01-27T03:32:17;102475.19;;;9.31;63.94
75585;BME280;64162;53.508;10.476;2024-01-27T03:34:44;102468.28;;;8.81;65.44
75585;BME280;64162;53.508;10.476;2024-01-27T03:37:14;102468.72;;;8.88;65.77
75585;BME280;64162;53.508;10.476;2024-01-27T03:39:41;102475.84;;;9.10;64.83
75585;BME280;64162;53.508;10.476;2024-01-27T03:42:07;102468.50;;;8.91;65.63
75585;BME280;64162;53.508;10.476;2024-01-27T03:44:34;102470.88;;;9.07;64.88
75585;BME280;64162;53.508;10.476;2024-01-27T03:47:00;102480.25;;;9.33;64.94
75585;BME280;64162;53.508;10.476;2024-01-27T03:49:27;102468.06;;;9.35;64.44
75585;BME280;64162;53.508;10.476;2024-01-27T03:51:53;102473.75;;;9.27;64.75
75585;BME280;64162;53.508;10.476;2024-01-27T03:54:20;102488.75;;;8.97;65.15
75585;BME280;64162;53.508;10.476;2024-01-27T03:56:47;102485.97;;;9.13;65.38
75585;BME280;64162;53.508;10.476;2024-01-27T03:59:13;102485.03;;;9.14;64.98
75585;BME280;64162;53.508;10.476;2024-01-27T04:01:40;102489.28;;;9.02;65.78
75585;BME280;64162;53.508;10.476;2024-01-27T04:04:06;102499.28;;;8.81;65.85
75585;BME280;64162;53.508;10.476;2024-01-27T04:06:36;102501.16;;;8.92;65.79
75585;BME280;64162;53.508;10.476;2024-01-27T04:09:04;102509.75;;;8.80;65.79
75585;BME280;64162;53.508;10.476;2024-01-27T04:11:31;102503.13;;;9.14;65.36
75585;BME280;64162;53.508;10.476;2024-01-27T04:13:58;102514.38;;;9.38;64.50
75585;BME280;64162;53.508;10.476;2024-01-27T04:16:24;102505.66;;;9.52;63.99
75585;BME280;64162;53.508;10.476;2024-01-27T04:18:51;102520.81;;;9.20;64.58
75585;BME280;64162;53.508;10.476;2024-01-27T04:21:17;102522.00;;;9.52;63.75
75585;BME280;64162;53.508;10.476;2024-01-27T04:23:44;102512.09;;;9.21;64.34
75585;BME280;64162;53.508;10.476;2024-01-27T04:26:10;102525.78;;;9.35;64.87
75585;BME280;64162;53.508;10.476;2024-01-27T04:28:37;102521.94;;;9.28;65.35
75585;BME280;64162;53.508;10.476;2024-01-27T04:31:04;102528.69;;;8.66;66.26
75585;BME280;64162;53.508;10.476;2024-01-27T04:33:31;102525.03;;;9.21;65.76
75585;BME280;64162;53.508;10.476;2024-01-27T04:35:57;102530.63;;;9.40;64.71
75585;BME280;64162;53.508;10.476;2024-01-27T04:38:24;102525.97;;;9.32;65.26
75585;BME280;64162;53.508;10.476;2024-01-27T04:40:51;102541.66;;;8.91;65.70
75585;BME280;64162;53.508;10.476;2024-01-27T04:43:18;102528.81;;;9.66;64.07
75585;BME280;64162;53.508;10.476;2024-01-27T04:45:49;102537.44;;;9.41;65.07
75585;BME280;64162;53.508;10.476;2024-01-27T04:48:17;102515.41;;;8.97;65.96
75585;BME280;64162;53.508;10.476;2024-01-27T04:50:43;102536.00;;;9.24;64.92
75585;BME280;64162;53.508;10.476;2024-01-27T04:53:10;102530.31;;;8.94;66.04
75585;BME280;64162;53.508;10.476;2024-01-27T04:55:37;102535.88;;;9.26;65.72
75585;BME280;64162;53.508;10.476;2024-01-27T04:58:07;102536.31;;;9.20;65.63
75585;BME280;64162;53.508;10.476;2024-01-27T05:00:34;102539.63;;;9.22;65.59
75585;BME280;64162;53.508;10.476;2024-01-27T05:03:00;102537.13;;;9.08;65.95
75585;BME280;64162;53.508;10.476;2024-01-27T05:05:30;102538.16;;;9.43;64.47
75585;BME280;64162;53.508;10.476;2024-01-27T05:07:58;102548.91;;;9.12;66.29
75585;BME280;64162;53.508;10.476;2024-01-27T05:10:25;102553.91;;;9.15;65.43
75585;BME280;64162;53.508;10.476;2024-01-27T05:12:52;102560.09;;;8.99;65.82
75585;BME280;64162;53.508;10.476;2024-01-27T05:15:18;102566.72;;;9.29;65.68
75585;BME280;64162;53.508;10.476;2024-01-27T05:17:45;102568.22;;;9.06;65.92
75585;BME280;64162;53.508;10.476;2024-01-27T05:20:11;102567.75;;;9.14;65.45
75585;BME280;64162;53.508;10.476;2024-01-27T05:22:38;102554.59;;;9.04;66.53
75585;BME280;64162;53.508;10.476;2024-01-27T05:25:05;102560.56;;;8.40;68.73
75585;BME280;64162;53.508;10.476;2024-01-27T05:27:32;102561.97;;;9.10;66.38
75585;BME280;64162;53.508;10.476;2024-01-27T05:29:58;102567.75;;;9.14;66.32
75585;BME280;64162;53.508;10.476;2024-01-27T05:32:25;102556.84;;;8.83;67.31
75585;BME280;64162;53.508;10.476;2024-01-27T05:34:51;102567.31;;;8.94;66.54
75585;BME280;64162;53.508;10.476;2024-01-27T05:37:18;102566.19;;;8.59;68.24
75585;BME280;64162;53.508;10.476;2024-01-27T05:39:44;102562.09;;;8.82;67.51
75585;BME280;64162;53.508;10.476;2024-01-27T05:42:11;102567.13;;;9.10;66.03
75585;BME280;64162;53.508;10.476;2024-01-27T05:44:37;102585.88;;;8.74;67.57
75585;BME280;64162;53.508;10.476;2024-01-27T05:47:04;102584.72;;;8.78;67.80
75585;BME280;64162;53.508;10.476;2024-01-27T05:49:31;102580.09;;;8.96;66.44
75585;BME280;64162;53.508;10.476;2024-01-27T05:51:58;102586.44;;;9.04;66.54
75585;BME280;64162;53.508;10.476;2024-01-27T05:54:25;102585.78;;;8.88;66.63
75585;BME280;64162;53.508;10.476;2024-01-27T05:56:52;102593.91;;;9.09;66.23
75585;BME280;64162;53.508;10.476;2024-01-27T05:59:18;102587.31;;;8.78;67.11
75585;BME280;64162;53.508;10.476;2024-01-27T06:01:45;102590.09;;;9.40;65.79
75585;BME280;64162;53.508;10.476;2024-01-27T06:04:11;102594.53;;;8.46;67.64
75585;BME280;64162;53.508;10.476;2024-01-27T06:06:41;102614.91;;;8.51;67.89
75585;BME280;64162;53.508;10.476;2024-01-27T06:09:07;102622.59;;;8.65;67.83
75585;BME280;64162;53.508;10.476;2024-01-27T06:11:37;102607.22;;;9.16;66.06
75585;BME280;64162;53.508;10.476;2024-01-27T06:14:04;102610.94;;;9.12;66.22
75585;BME280;64162;53.508;10.476;2024-01-27T06:16:31;102623.00;;;8.59;67.91
75585;BME280;64162;53.508;10.476;2024-01-27T06:18:57;102620.53;;;8.70;67.66
75585;BME280;64162;53.508;10.476;2024-01-27T06:21:24;102622.03;;;8.74;67.36
75585;BME280;64162;53.508;10.476;2024-01-27T06:23:51;102625.72;;;8.70;67.20
75585;BME280;64162;53.508;10.476;2024-01-27T06:26:18;102630.00;;;8.84;66.67
75585;BME280;64162;53.508;10.476;2024-01-27T06:28:44;102634.03;;;8.88;66.88
75585;BME280;64162;53.508;10.476;2024-01-27T06:31:11;102640.16;;;8.60;67.08
75585;BME280;64162;53.508;10.476;2024-01-27T06:33:38;102646.47;;;8.42;68.00
75585;BME280;64162;53.508;10.476;2024-01-27T06:36:04;102640.53;;;8.81;67.22
75585;BME280;64162;53.508;10.476;2024-01-27T06:38:31;102653.09;;;8.99;66.26
75585;BME280;64162;53.508;10.476;2024-01-27T06:40:58;102641.53;;;9.05;66.52
75585;BME280;64162;53.508;10.476;2024-01-27T06:43:24;102661.13;;;9.34;65.22
75585;BME280;64162;53.508;10.476;2024-01-27T06:45:51;102643.66;;;8.59;67.70
75585;BME280;64162;53.508;10.476;2024-01-27T06:48:17;102658.47;;;8.70;67.30
75585;BME280;64162;53.508;10.476;2024-01-27T06:50:44;102662.03;;;8.26;67.82
75585;BME280;64162;53.508;10.476;2024-01-27T06:53:10;102666.19;;;8.96;66.29
75585;BME280;64162;53.508;10.476;2024-01-27T06:55:37;102666.47;;;8.38;68.48
75585;BME280;64162;53.508;10.476;2024-01-27T06:58:05;102678.00;;;8.33;68.33
75585;BME280;64162;53.508;10.476;2024-01-27T07:00:32;102681.69;;;8.43;68.49
75585;BME280;64162;53.508;10.476;2024-01-27T07:02:58;102672.66;;;8.50;67.91
75585;BME280;64162;53.508;10.476;2024-01-27T07:05:25;102680.00;;;8.28;68.14
75585;BME280;64162;53.508;10.476;2024-01-27T07:07:52;102685.66;;;8.34;68.09
75585;BME280;64162;53.508;10.476;2024-01-27T07:10:18;102679.19;;;8.82;67.10
75585;BME280;64162;53.508;10.476;2024-01-27T07:12:45;102669.47;;;8.59;67.25
75585;BME280;64162;53.508;10.476;2024-01-27T07:15:12;102683.50;;;8.27;68.12
75585;BME280;64162;53.508;10.476;2024-01-27T07:17:38;102695.53;;;8.95;66.73
75585;BME280;64162;53.508;10.476;2024-01-27T07:20:05;102688.66;;;8.27;68.12
75585;BME280;64162;53.508;10.476;2024-01-27T07:22:32;102703.63;;;8.36;67.67
75585;BME280;64162;53.508;10.476;2024-01-27T07:25:00;102692.06;;;8.70;66.96
75585;BME280;64162;53.508;10.476;2024-01-27T07:27:26;102708.69;;;8.51;67.08
75585;BME280;64162;53.508;10.476;2024-01-27T07:29:53;102719.47;;;8.58;67.38
75585;BME280;64162;53.508;10.476;2024-01-27T07:32:19;102724.31;;;8.77;66.95
75585;BME280;64162;53.508;10.476;2024-01-27T07:34:46;102722.13;;;8.97;66.33
75585;BME280;64162;53.508;10.476;2024-01-27T07:37:12;102709.34;;;8.55;66.81
75585;BME280;64162;53.508;10.476;2024-01-27T07:39:39;102720.47;;;8.27;68.21
75585;BME280;64162;53.508;10.476;2024-01-27T07:42:06;102706.66;;;8.83;67.30
75585;BME280;64162;53.508;10.476;2024-01-27T07:44:33;102719.09;;;8.64;66.20
75585;BME280;64162;53.508;10.476;2024-01-27T07:46:59;102717.69;;;8.99;66.33
75585;BME280;64162;53.508;10.476;2024-01-27T07:49:26;102722.22;;;8.12;68.29
75585;BME280;64162;53.508;10.476;2024-01-27T07:51:53;102722.59;;;8.20;68.12
75585;BME280;64162;53.508;10.476;2024-01-27T07:54:20;102724.81;;;8.12;67.81
75585;BME280;64162;53.508;10.476;2024-01-27T07:56:46;102729.25;;;8.39;67.23
75585;BME280;64162;53.508;10.476;2024-01-27T07:59:13;102743.78;;;8.26;67.42
75585;BME280;64162;53.508;10.476;2024-01-27T08:01:40;102735.97;;;8.41;66.95
75585;BME280;64162;53.508;10.476;2024-01-27T08:04:07;102736.78;;;8.13;68.39
75585;BME280;64162;53.508;10.476;2024-01-27T08:06:45;102742.75;;;8.00;68.66
75585;BME280;64162;53.508;10.476;2024-01-27T08:09:12;102742.72;;;8.44;67.20
75585;BME280;64162;53.508;10.476;2024-01-27T08:11:39;102750.47;;;7.86;68.50
75585;BME280;64162;53.508;10.476;2024-01-27T08:14:05;102735.63;;;7.75;68.54
75585;BME280;64162;53.508;10.476;2024-01-27T08:16:32;102735.59;;;7.61;69.12
75585;BME280;64162;53.508;10.476;2024-01-27T08:18:58;102741.47;;;7.49;69.46
75585;BME280;64162;53.508;10.476;2024-01-27T08:21:25;102734.00;;;7.88;68.62
75585;BME280;64162;53.508;10.476;2024-01-27T08:23:52;102756.97;;;7.63;68.66
75585;BME280;64162;53.508;10.476;2024-01-27T08:26:19;102744.13;;;7.91;68.11
75585;BME280;64162;53.508;10.476;2024-01-27T08:28:47;102762.50;;;7.71;68.75
75585;BME280;64162;53.508;10.476;2024-01-27T08:31:14;102758.06;;;8.03;67.80
75585;BME280;64162;53.508;10.476;2024-01-27T08:33:40;102761.72;;;7.85;69.35
75585;BME280;64162;53.508;10.476;2024-01-27T08:36:07;102765.91;;;8.72;68.61
75585;BME280;64162;53.508;10.476;2024-01-27T08:38:34;102781.63;;;8.69;65.91
75585;BME280;64162;53.508;10.476;2024-01-27T08:41:01;102777.91;;;8.31;67.90
75585;BME280;64162;53.508;10.476;2024-01-27T08:43:27;102790.63;;;8.76;65.87
75585;BME280;64162;53.508;10.476;2024-01-27T08:45:54;102786.47;;;8.17;67.58
75585;BME280;64162;53.508;10.476;2024-01-27T08:48:22;102792.25;;;8.06;67.79
75585;BME280;64162;53.508;10.476;2024-01-27T08:50:48;102788.53;;;7.96;67.49
75585;BME280;64162;53.508;10.476;2024-01-27T08:53:15;102787.91;;;7.63;68.87
75585;BME280;64162;53.508;10.476;2024-01-27T08:55:41;102790.97;;;8.13;67.02
75585;BME280;64162;53.508;10.476;2024-01-27T08:58:08;102792.41;;;7.89;67.30
75585;BME280;64162;53.508;10.476;2024-01-27T09:00:34;102791.44;;;8.20;67.75
75585;BME280;64162;53.508;10.476;2024-01-27T09:03:01;102798.59;;;8.59;66.17
75585;BME280;64162;53.508;10.476;2024-01-27T09:05:29;102796.00;;;8.01;67.38
75585;BME280;64162;53.508;10.476;2024-01-27T09:07:55;102774.44;;;7.88;67.58
75585;BME280;64162;53.508;10.476;2024-01-27T09:10:22;102791.06;;;8.26;67.61
75585;BME280;64162;53.508;10.476;2024-01-27T09:12:49;102788.81;;;8.64;65.72
75585;BME280;64162;53.508;10.476;2024-01-27T09:15:15;102799.13;;;8.36;67.27
75585;BME280;64162;53.508;10.476;2024-01-27T10:04:02;102819.59;;;8.67;64.52
75585;BME280;64162;53.508;10.476;2024-01-27T10:11:52;102820.16;;;8.72;65.16
75585;BME280;64162;53.508;10.476;2024-01-27T10:15:21;102816.59;;;9.01;64.31
75585;BME280;64162;53.508;10.476;2024-01-27T10:17:48;102811.66;;;8.84;64.91
75585;BME280;64162;53.508;10.476;2024-01-27T10:20:14;102808.31;;;8.96;64.79
75585;BME280;64162;53.508;10.476;2024-01-27T10:25:40;102805.56;;;9.26;63.45
75585;BME280;64162;53.508;10.476;2024-01-27T10:28:07;102811.25;;;9.04;64.31
75585;BME280;64162;53.508;10.476;2024-01-27T10:30:37;102811.22;;;9.45;63.02
75585;BME280;64162;53.508;10.476;2024-01-27T10:33:04;102822.59;;;9.43;63.15
75585;BME280;64162;53.508;10.476;2024-01-27T10:35:31;102823.09;;;9.21;63.24
75585;BME280;64162;53.508;10.476;2024-01-27T10:37:57;102827.53;;;9.60;62.30
75585;BME280;64162;53.508;10.476;2024-01-27T10:40:24;102824.41;;;9.55;62.49
75585;BME280;64162;53.508;10.476;2024-01-27T10:43:04;102829.66;;;9.54;62.66
75585;BME280;64162;53.508;10.476;2024-01-27T10:45:41;102839.16;;;9.53;63.03
75585;BME280;64162;53.508;10.476;2024-01-27T10:48:09;102828.28;;;9.21;63.14
75585;BME280;64162;53.508;10.476;2024-01-27T10:50:40;102825.59;;;9.89;61.54
75585;BME280;64162;53.508;10.476;2024-01-27T10:53:22;102847.13;;;9.50;62.55
75585;BME280;64162;53.508;10.476;2024-01-27T10:55:57;102827.16;;;9.79;61.26
75585;BME280;64162;53.508;10.476;2024-01-27T10:58:24;102842.97;;;9.47;61.96
75585;BME280;64162;53.508;10.476;2024-01-27T11:00:52;102839.84;;;9.69;61.56
75585;BME280;64162;53.508;10.476;2024-01-27T11:03:20;102846.84;;;9.55;61.89
75585;BME280;64162;53.508;10.476;2024-01-27T11:05:47;102847.56;;;9.57;61.59
75585;BME280;64162;53.508;10.476;2024-01-27T11:08:16;102832.91;;;9.70;61.29
75585;BME280;64162;53.508;10.476;2024-01-27T11:10:44;102845.69;;;9.98;60.77
75585;BME280;64162;53.508;10.476;2024-01-27T11:13:12;102841.66;;;9.55;61.16
75585;BME280;64162;53.508;10.476;2024-01-27T11:15:39;102842.94;;;10.14;60.68
75585;BME280;64162;53.508;10.476;2024-01-27T11:18:05;102835.75;;;9.92;60.68
75585;BME280;64162;53.508;10.476;2024-01-27T11:20:33;102838.19;;;9.68;60.90
75585;BME280;64162;53.508;10.476;2024-01-27T11:23:10;102822.41;;;9.85;61.17
75585;BME280;64162;53.508;10.476;2024-01-27T11:25:37;102834.59;;;10.36;60.03
75585;BME280;64162;53.508;10.476;2024-01-27T11:28:14;102830.97;;;10.38;60.38
75585;BME280;64162;53.508;10.476;2024-01-27T11:30:47;102833.72;;;10.10;59.63
75585;BME280;64162;53.508;10.476;2024-01-27T11:33:15;102822.97;;;10.28;59.71
75585;BME280;64162;53.508;10.476;2024-01-27T11:35:41;102825.22;;;10.08;59.60
75585;BME280;64162;53.508;10.476;2024-01-27T11:38:08;102840.25;;;9.63;60.77
75585;BME280;64162;53.508;10.476;2024-01-27T11:40:44;102836.44;;;10.33;59.30
75585;BME280;64162;53.508;10.476;2024-01-27T11:43:11;102832.84;;;10.36;59.75
75585;BME280;64162;53.508;10.476;2024-01-27T11:45:40;102839.78;;;10.36;59.72
75585;BME280;64162;53.508;10.476;2024-01-27T11:48:07;102847.44;;;10.24;59.53
75585;BME280;64162;53.508;10.476;2024-01-27T11:50:33;102850.31;;;10.20;60.25
75585;BME280;64162;53.508;10.476;2024-01-27T11:53:00;102839.56;;;10.26;59.58
75585;BME280;64162;53.508;10.476;2024-01-27T11:55:26;102845.69;;;10.50;58.80
75585;BME280;64162;53.508;10.476;2024-01-27T11:57:53;102856.50;;;10.05;59.35
75585;BME280;64162;53.508;10.476;2024-01-27T12:00:20;102861.28;;;10.74;58.29
75585;BME280;64162;53.508;10.476;2024-01-27T12:02:49;102857.16;;;10.46;59.02
75585;BME280;64162;53.508;10.476;2024-01-27T12:05:16;102861.38;;;10.72;58.09
75585;BME280;64162;53.508;10.476;2024-01-27T12:07:43;102869.69;;;10.52;58.38
75585;BME280;64162;53.508;10.476;2024-01-27T12:10:09;102867.50;;;10.46;58.78
75585;BME280;64162;53.508;10.476;2024-01-27T12:12:36;102852.22;;;10.92;57.36
75585;BME280;64162;53.508;10.476;2024-01-27T12:15:03;102853.97;;;10.55;57.69
75585;BME280;64162;53.508;10.476;2024-01-27T12:17:30;102850.63;;;10.66;58.06
75585;BME280;64162;53.508;10.476;2024-01-27T12:19:57;102854.03;;;10.41;58.00
75585;BME280;64162;53.508;10.476;2024-01-27T12:22:28;102862.38;;;11.08;56.83
75585;BME280;64162;53.508;10.476;2024-01-27T12:24:59;102877.66;;;10.62;57.47
75585;BME280;64162;53.508;10.476;2024-01-27T12:27:34;102890.13;;;10.69;57.61
75585;BME280;64162;53.508;10.476;2024-01-27T12:30:01;102879.88;;;10.55;57.59
75585;BME280;64162;53.508;10.476;2024-01-27T12:32:29;102876.22;;;10.32;57.63
75585;BME280;64162;53.508;10.476;2024-01-27T12:34:55;102879.13;;;10.41;56.86
75585;BME280;64162;53.508;10.476;2024-01-27T12:37:22;102886.38;;;10.73;56.47
75585;BME280;64162;53.508;10.476;2024-01-27T12:39:49;102863.59;;;10.53;56.58
75585;BME280;64162;53.508;10.476;2024-01-27T12:42:18;102862.66;;;10.42;57.12
75585;BME280;64162;53.508;10.476;2024-01-27T12:44:45;102869.50;;;11.17;55.30
75585;BME280;64162;53.508;10.476;2024-01-27T12:47:12;102877.94;;;11.92;56.66
75585;BME280;64162;53.508;10.476;2024-01-27T12:49:39;102876.47;;;11.77;57.77
75585;BME280;64162;53.508;10.476;2024-01-27T12:52:11;102872.63;;;11.09;55.87
75585;BME280;64162;53.508;10.476;2024-01-27T12:54:37;102877.44;;;10.77;56.32
75585;BME280;64162;53.508;10.476;2024-01-27T12:57:04;102862.22;;;10.73;56.59
75585;BME280;64162;53.508;10.476;2024-01-27T12:59:32;102868.13;;;10.62;56.27
75585;BME280;64162;53.508;10.476;2024-01-27T13:01:59;102871.50;;;11.37;54.65
75585;BME280;64162;53.508;10.476;2024-01-27T13:04:25;102861.47;;;10.96;55.61
75585;BME280;64162;53.508;10.476;2024-01-27T13:06:52;102866.63;;;11.09;55.80
75585;BME280;64162;53.508;10.476;2024-01-27T13:09:20;102860.88;;;10.80;56.39
75585;BME280;64162;53.508;10.476;2024-01-27T13:11:47;102869.22;;;11.09;56.50
75585;BME280;64162;53.508;10.476;2024-01-27T13:14:14;102858.38;;;10.91;56.43
75585;BME280;64162;53.508;10.476;2024-01-27T13:16:42;102857.66;;;10.76;55.95
75585;BME280;64162;53.508;10.476;2024-01-27T13:19:09;102861.38;;;10.72;56.10
75585;BME280;64162;53.508;10.476;2024-01-27T13:21:35;102854.44;;;11.22;55.20
75585;BME280;64162;53.508;10.476;2024-01-27T13:24:02;102856.59;;;10.92;56.17
75585;BME280;64162;53.508;10.476;2024-01-27T13:26:29;102856.03;;;11.12;56.52
75585;BME280;64162;53.508;10.476;2024-01-27T13:28:58;102861.00;;;12.10;53.80
75585;BME280;64162;53.508;10.476;2024-01-27T13:31:24;102860.69;;;11.19;54.27
75585;BME280;64162;53.508;10.476;2024-01-27T13:33:52;102845.78;;;12.17;51.52
75585;BME280;64162;53.508;10.476;2024-01-27T13:36:18;102851.81;;;11.58;52.79
75585;BME280;64162;53.508;10.476;2024-01-27T13:38:45;102847.72;;;11.91;53.72
75585;BME280;64162;53.508;10.476;2024-01-27T13:41:12;102852.97;;;10.94;55.90
75585;BME280;64162;53.508;10.476;2024-01-27T13:43:39;102849.75;;;11.27;55.75